createdAt,value
2022-12-31T00:03:22.581Z,1642
2022-12-31T00:08:52.941Z,1660
2022-12-31T00:14:23.546Z,1675
2022-12-31T00:19:54.003Z,1696
2022-12-31T00:25:24.474Z,1727
2022-12-31T00:30:54.073Z,1741
2022-12-31T00:36:24.447Z,1744
2022-12-31T00:41:54.937Z,1799
2022-12-31T00:47:24.442Z,1798
2022-12-31T00:52:54.914Z,1800
2022-12-31T00:58:24.542Z,1793
2022-12-31T01:03:54.911Z,1790
2022-12-31T01:09:25.349Z,1796
2022-12-31T01:14:54.839Z,1804
2022-12-31T01:20:25.337Z,1820
2022-12-31T01:25:55.799Z,1852
2022-12-31T01:31:26.534Z,1813
2022-12-31T01:36:56.883Z,1814
2022-12-31T01:42:27.333Z,1813
2022-12-31T01:47:57.937Z,1799
2022-12-31T01:53:28.439Z,1792
2022-12-31T01:58:57.891Z,1779
2022-12-31T02:04:28.355Z,1765
2022-12-31T02:09:58.870Z,1725
2022-12-31T02:15:29.446Z,1769
2022-12-31T02:20:59.956Z,1796
2022-12-31T02:26:29.500Z,1771
2022-12-31T02:31:59.946Z,1773
2022-12-31T02:37:30.421Z,1747
2022-12-31T02:42:59.933Z,1761
2022-12-31T02:48:30.392Z,1760
2022-12-31T02:54:00.860Z,1757
2022-12-31T02:59:30.376Z,1768
2022-12-31T03:05:00.831Z,1760
2022-12-31T03:10:31.328Z,1728
2022-12-31T03:16:02.002Z,1730
2022-12-31T03:21:32.388Z,1732
2022-12-31T03:27:02.982Z,1742
2022-12-31T03:32:33.474Z,1741
2022-12-31T03:38:03.967Z,1727
2022-12-31T03:43:34.545Z,1739
2022-12-31T03:49:05.077Z,1743
2022-12-31T03:54:34.527Z,1742
2022-12-31T04:00:05.032Z,1731
2022-12-31T04:05:35.599Z,1730
2022-12-31T04:11:04.976Z,1727
2022-12-31T04:16:35.529Z,1722
2022-12-31T04:22:05.955Z,1723
2022-12-31T04:27:35.425Z,1733
2022-12-31T04:33:05.915Z,1727
2022-12-31T04:38:36.410Z,1733
2022-12-31T04:44:05.893Z,1713
2022-12-31T04:49:36.356Z,1729
2022-12-31T04:55:05.869Z,1738
2022-12-31T05:00:36.305Z,1734
2022-12-31T05:06:06.815Z,1744
2022-12-31T05:11:36.304Z,1739
2022-12-31T05:17:06.751Z,1719
2022-12-31T05:22:37.245Z,1712
2022-12-31T05:28:06.743Z,1713
2022-12-31T05:33:37.247Z,1721
2022-12-31T05:39:06.706Z,1734
2022-12-31T05:44:37.184Z,1699
2022-12-31T05:50:07.659Z,1725
2022-12-31T05:55:37.134Z,1746
2022-12-31T06:01:07.678Z,1727
2022-12-31T06:06:38.123Z,1742
2022-12-31T06:12:08.718Z,1692
2022-12-31T06:17:39.220Z,1746
2022-12-31T06:23:09.761Z,1734
2022-12-31T06:28:40.324Z,1723
2022-12-31T06:34:10.861Z,1726
2022-12-31T06:39:41.388Z,1725
2022-12-31T06:45:11.878Z,1714
2022-12-31T06:50:42.540Z,1770
2022-12-31T06:56:13.220Z,1659
2022-12-31T07:01:43.715Z,1626
2022-12-31T07:07:14.204Z,1601
2022-12-31T07:12:44.645Z,1574
2022-12-31T07:18:15.135Z,1552
2022-12-31T07:23:45.771Z,1531
2022-12-31T07:29:16.205Z,1517
2022-12-31T07:34:46.668Z,1515
2022-12-31T07:40:17.313Z,1505
2022-12-31T07:45:47.775Z,1494
2022-12-31T07:51:18.356Z,1476
2022-12-31T07:56:48.853Z,1462
2022-12-31T08:02:19.484Z,1438
2022-12-31T08:07:49.895Z,1227
2022-12-31T08:13:20.398Z,1095
2022-12-31T08:18:50.852Z,1056
2022-12-31T08:24:21.493Z,1041
2022-12-31T08:29:51.966Z,912
2022-12-31T08:35:22.417Z,884
2022-12-31T08:40:53.050Z,843
2022-12-31T08:46:23.558Z,761
2022-12-31T08:51:54.011Z,714
2022-12-31T08:57:24.602Z,711
2022-12-31T09:02:55.123Z,685
2022-12-31T09:08:25.686Z,669
2022-12-31T09:13:56.167Z,659
2022-12-31T09:19:26.697Z,646
2022-12-31T09:24:57.210Z,622
2022-12-31T09:30:27.693Z,611
2022-12-31T09:35:58.235Z,593
2022-12-31T09:41:28.795Z,582
2022-12-31T09:48:05.366Z,579
2022-12-31T09:53:35.885Z,574
2022-12-31T09:59:06.460Z,578
2022-12-31T10:04:37.001Z,580
2022-12-31T10:10:07.621Z,567
2022-12-31T10:16:44.221Z,559
2022-12-31T10:22:13.680Z,559
2022-12-31T10:27:44.308Z,555
2022-12-31T10:33:14.772Z,557
2022-12-31T10:38:44.425Z,550
2022-12-31T10:44:12.086Z,546
2022-12-31T10:49:42.654Z,538
2022-12-31T10:55:13.136Z,528
2022-12-31T11:00:43.629Z,525
2022-12-31T11:06:14.184Z,524
2022-12-31T11:11:43.902Z,522
2022-12-31T11:17:14.524Z,518
2022-12-31T11:22:45.055Z,519
2022-12-31T11:28:15.583Z,516
2022-12-31T11:33:50.278Z,512
2022-12-31T11:39:15.675Z,513
2022-12-31T11:44:46.187Z,513
2022-12-31T11:50:16.814Z,517
2022-12-31T11:55:47.263Z,517
2022-12-31T12:01:16.929Z,520
2022-12-31T12:06:47.408Z,517
2022-12-31T12:12:17.937Z,517
2022-12-31T12:17:48.555Z,522
2022-12-31T12:23:18.024Z,515
2022-12-31T12:28:48.595Z,518
2022-12-31T12:34:19.091Z,554
2022-12-31T12:39:49.699Z,553
2022-12-31T12:45:20.132Z,556
2022-12-31T12:50:50.608Z,561
2022-12-31T12:56:20.161Z,561
2022-12-31T13:01:50.786Z,566
2022-12-31T13:07:21.103Z,567
2022-12-31T13:18:22.176Z,565
2022-12-31T13:23:51.666Z,566
2022-12-31T13:29:22.188Z,570
2022-12-31T13:34:52.635Z,572
2022-12-31T13:40:22.159Z,571
2022-12-31T13:45:52.686Z,570
2022-12-31T13:51:23.097Z,572
2022-12-31T13:56:53.627Z,609
2022-12-31T14:02:24.326Z,592
2022-12-31T14:07:54.644Z,597
2022-12-31T14:13:30.701Z,594
2022-12-31T14:18:55.759Z,597
2022-12-31T14:24:26.164Z,597
2022-12-31T14:29:56.777Z,654
2022-12-31T14:35:27.294Z,678
2022-12-31T14:40:57.720Z,699
2022-12-31T14:46:28.324Z,725
2022-12-31T14:51:58.826Z,738
2022-12-31T14:57:29.294Z,767
2022-12-31T15:03:00.034Z,790
2022-12-31T15:08:30.435Z,791
2022-12-31T15:13:59.888Z,780
2022-12-31T15:19:30.371Z,778
2022-12-31T15:25:00.942Z,778
2022-12-31T15:30:30.470Z,774
2022-12-31T15:36:00.830Z,766
2022-12-31T15:41:31.330Z,763
2022-12-31T15:47:00.838Z,769
2022-12-31T15:52:31.385Z,782
2022-12-31T15:58:02.017Z,780
2022-12-31T16:03:32.553Z,783
2022-12-31T16:09:02.966Z,779
2022-12-31T16:14:33.605Z,769
2022-12-31T16:20:04.029Z,772
2022-12-31T16:25:34.643Z,769
2022-12-31T16:31:05.171Z,767
2022-12-31T16:36:35.605Z,763
2022-12-31T16:42:05.062Z,762
2022-12-31T16:47:35.629Z,756
2022-12-31T16:53:06.019Z,755
2022-12-31T16:58:36.627Z,749
2022-12-31T17:04:07.138Z,749
2022-12-31T17:09:36.629Z,750
2022-12-31T17:15:07.116Z,751
2022-12-31T17:20:37.598Z,761
2022-12-31T17:26:08.162Z,1125
2022-12-31T17:31:38.704Z,1222
2022-12-31T17:37:14.343Z,1221
2022-12-31T17:42:39.798Z,1223
2022-12-31T17:48:10.298Z,1230
2022-12-31T17:53:40.891Z,1230
2022-12-31T17:59:11.371Z,1230
2022-12-31T18:04:41.893Z,1221
2022-12-31T18:10:12.342Z,1201
2022-12-31T18:15:42.927Z,1174
2022-12-31T18:21:13.408Z,1158
2022-12-31T18:26:43.913Z,1138
2022-12-31T18:32:13.386Z,1118
2022-12-31T18:37:43.863Z,1111
2022-12-31T18:43:14.369Z,1101
2022-12-31T18:48:44.949Z,1093
2022-12-31T18:54:15.409Z,1099
2022-12-31T18:59:46.107Z,1104
2022-12-31T19:05:16.566Z,1096
2022-12-31T19:10:47.027Z,1091
2022-12-31T19:16:16.617Z,1102
2022-12-31T19:21:47.012Z,1099
2022-12-31T19:27:17.497Z,1096
2022-12-31T19:32:48.236Z,1098
2022-12-31T19:38:18.673Z,1104
2022-12-31T19:43:49.248Z,1102
2022-12-31T19:49:19.779Z,1079
2022-12-31T19:54:50.609Z,1054
2022-12-31T20:00:20.802Z,1047
2022-12-31T20:05:51.317Z,1023
2022-12-31T20:11:21.752Z,1003
2022-12-31T20:16:52.445Z,980
2022-12-31T20:22:22.838Z,949
2022-12-31T20:27:53.305Z,931
2022-12-31T20:33:23.937Z,914
2022-12-31T20:38:54.517Z,902
2022-12-31T20:44:25.002Z,891
2022-12-31T20:50:12.257Z,882
2022-12-31T20:55:25.975Z,877
2022-12-31T21:00:55.468Z,879
2022-12-31T21:06:25.929Z,890
2022-12-31T21:11:56.524Z,901
2022-12-31T21:17:25.918Z,905
2022-12-31T21:22:56.391Z,909
2022-12-31T21:28:26.912Z,921
2022-12-31T21:33:56.383Z,933
2022-12-31T21:39:26.861Z,951
2022-12-31T21:44:57.373Z,967
2022-12-31T21:50:26.857Z,978
2022-12-31T21:55:57.450Z,999
2022-12-31T22:01:28.027Z,1008
2022-12-31T22:06:58.400Z,1022
2022-12-31T22:12:29.000Z,1028
2022-12-31T22:17:59.493Z,1041
2022-12-31T22:23:29.934Z,1047
2022-12-31T22:29:00.524Z,1057
2022-12-31T22:34:31.149Z,1069
2022-12-31T22:40:01.741Z,1083
2022-12-31T22:45:31.081Z,1099
2022-12-31T22:51:01.905Z,1113
2022-12-31T22:56:31.078Z,1124
2022-12-31T23:02:01.573Z,1123
2022-12-31T23:07:32.060Z,1093
2022-12-31T23:13:01.866Z,1045
2022-12-31T23:18:31.995Z,1010
2022-12-31T23:24:02.526Z,993
2022-12-31T23:29:33.104Z,972
2022-12-31T23:35:09.568Z,960
2022-12-31T23:40:34.402Z,943
2022-12-31T23:46:04.665Z,939
2022-12-31T23:51:35.107Z,926
2022-12-31T23:57:04.616Z,923
